Alger, Washington
Current Conditions -  °F | °C
As of 9:35 PM on Monday 26 Jan 2015 (Local Time) from KBVS Reporting Station
Overcast Overcast  
Wind Chill: 45°   Ceiling: 100
Heat Index: 45°   Visibility: 0.25mi
Dew Point: 45°   Wind: 3mph
Humidity: 100%   Direction: 140°SE
Pressure: 29.97"   Gusts: NA
Location:  48.4982°N, 122.346°W
Report Text: KBVS 270535Z AUTO 14003KT 1/4SM OVC001 07/07 A2997 RMK A01 P000
Loading
Personal Weather Stations






























Interactive Weather Map New forecast layout! Learn more

10-Day Weather Forecast

Advertisements
Track Severe Weather on mobile